createdAt,value
2022-09-22T00:00:32.884Z,0.00
2022-09-22T00:01:32.933Z,0.00
2022-09-22T00:02:32.918Z,0.00
2022-09-22T00:03:32.874Z,0.00
2022-09-22T00:04:32.889Z,0.00
2022-09-22T00:05:32.859Z,0.00
2022-09-22T00:06:32.811Z,0.00
2022-09-22T00:07:32.823Z,0.00
2022-09-22T00:08:32.784Z,0.00
2022-09-22T00:09:32.814Z,0.00
2022-09-22T00:10:32.769Z,0.00
2022-09-22T00:11:32.769Z,0.00
2022-09-22T00:12:32.765Z,0.00
2022-09-22T00:13:32.758Z,0.00
2022-09-22T00:14:32.779Z,0.00
2022-09-22T00:15:32.719Z,0.00
2022-09-22T00:16:32.814Z,0.00
2022-09-22T00:17:32.713Z,0.00
2022-09-22T00:18:32.684Z,0.00
2022-09-22T00:19:32.764Z,0.00
2022-09-22T00:20:32.688Z,0.00
2022-09-22T00:21:32.657Z,0.00
2022-09-22T00:22:32.639Z,0.00
2022-09-22T00:23:32.632Z,0.00
2022-09-22T00:24:32.668Z,0.00
2022-09-22T00:25:32.609Z,0.00
2022-09-22T00:26:32.599Z,0.00
2022-09-22T00:27:32.596Z,0.00
2022-09-22T00:28:32.561Z,0.00
2022-09-22T00:29:32.607Z,0.00
2022-09-22T00:30:32.568Z,0.00
2022-09-22T00:31:32.563Z,0.00
2022-09-22T00:32:32.547Z,0.00
2022-09-22T00:33:32.516Z,0.00
2022-09-22T00:34:32.553Z,0.00
2022-09-22T00:35:32.505Z,0.00
2022-09-22T00:36:32.498Z,0.00
2022-09-22T00:37:32.470Z,0.00
2022-09-22T00:38:32.431Z,0.00
2022-09-22T00:39:32.478Z,0.00
2022-09-22T00:40:32.489Z,0.00
2022-09-22T00:41:32.442Z,0.00
2022-09-22T00:42:32.416Z,0.00
2022-09-22T00:43:32.433Z,0.00
2022-09-22T00:44:32.435Z,0.00
2022-09-22T00:45:32.380Z,0.00
2022-09-22T00:46:32.407Z,0.00
2022-09-22T00:47:32.370Z,0.00
2022-09-22T00:48:32.368Z,0.00
2022-09-22T00:49:32.405Z,0.00
2022-09-22T00:50:32.313Z,0.00
2022-09-22T00:51:32.338Z,0.00
2022-09-22T00:52:32.291Z,0.00
2022-09-22T00:53:32.305Z,0.00
2022-09-22T00:54:32.313Z,0.00
2022-09-22T00:55:32.284Z,0.00
2022-09-22T00:56:32.253Z,0.00
2022-09-22T00:57:32.244Z,0.00
2022-09-22T00:58:32.244Z,0.00
2022-09-22T00:59:32.250Z,0.00
2022-09-22T01:00:32.249Z,0.00
2022-09-22T01:01:32.247Z,0.00
2022-09-22T01:02:32.205Z,0.00
2022-09-22T01:03:32.193Z,0.00
2022-09-22T01:04:32.210Z,0.00
2022-09-22T01:05:32.163Z,0.00
2022-09-22T01:06:32.124Z,0.00
2022-09-22T01:07:32.114Z,0.00
2022-09-22T01:08:32.127Z,0.00
2022-09-22T01:09:32.156Z,0.00
2022-09-22T01:10:32.097Z,0.00
2022-09-22T01:11:32.074Z,0.00
2022-09-22T01:12:32.077Z,0.00
2022-09-22T01:13:32.065Z,0.00
2022-09-22T01:14:32.085Z,0.00
2022-09-22T01:15:32.037Z,0.00
2022-09-22T01:16:32.020Z,0.00
2022-09-22T01:17:32.019Z,0.00
2022-09-22T01:18:32.013Z,0.00
2022-09-22T01:19:32.072Z,0.00
2022-09-22T01:20:31.991Z,0.00
2022-09-22T01:21:32.002Z,0.00
2022-09-22T01:22:31.960Z,0.00
2022-09-22T01:23:31.946Z,0.00
2022-09-22T01:24:31.952Z,0.00
2022-09-22T01:25:31.966Z,0.00
2022-09-22T01:26:31.914Z,0.00
2022-09-22T01:27:31.906Z,0.00
2022-09-22T01:28:31.920Z,0.00
2022-09-22T01:29:31.950Z,0.00
2022-09-22T01:30:31.873Z,0.00
2022-09-22T01:31:31.914Z,0.00
2022-09-22T01:32:31.843Z,0.00
2022-09-22T01:33:31.835Z,0.00
2022-09-22T01:34:31.816Z,0.00
2022-09-22T01:35:31.839Z,0.00
2022-09-22T01:36:31.802Z,0.00
2022-09-22T01:37:31.777Z,0.00
2022-09-22T01:38:31.779Z,0.00
2022-09-22T01:39:31.813Z,0.00
2022-09-22T01:40:31.807Z,0.00
2022-09-22T01:41:31.747Z,0.00
2022-09-22T01:42:31.721Z,0.00
2022-09-22T01:43:31.759Z,0.00
2022-09-22T01:44:31.700Z,0.00
2022-09-22T01:45:31.740Z,0.00
2022-09-22T01:46:31.709Z,0.00
2022-09-22T01:47:31.688Z,0.00
2022-09-22T01:48:31.668Z,0.00
2022-09-22T01:49:31.663Z,0.00
2022-09-22T01:50:31.686Z,0.00
2022-09-22T01:51:31.678Z,0.00
2022-09-22T01:52:31.626Z,0.00
2022-09-22T01:53:31.609Z,0.00
2022-09-22T01:54:31.599Z,0.00
2022-09-22T01:55:31.634Z,0.00
2022-09-22T01:56:31.585Z,0.00
2022-09-22T01:57:31.561Z,0.00
2022-09-22T01:58:31.543Z,0.00
2022-09-22T01:59:31.553Z,0.00
2022-09-22T02:00:31.562Z,0.00
2022-09-22T02:01:31.683Z,0.00
2022-09-22T02:02:31.739Z,0.00
2022-09-22T02:03:31.511Z,0.00
2022-09-22T02:04:31.468Z,0.00
2022-09-22T02:05:31.503Z,0.00
2022-09-22T02:06:31.441Z,0.00
2022-09-22T02:07:31.447Z,0.00
2022-09-22T02:08:31.445Z,0.00
2022-09-22T02:09:31.410Z,0.00
2022-09-22T02:10:31.454Z,0.00
2022-09-22T02:11:31.399Z,0.00
2022-09-22T02:12:31.377Z,0.00
2022-09-22T02:13:31.391Z,0.00
2022-09-22T02:14:31.361Z,0.00
2022-09-22T02:15:31.474Z,0.00
2022-09-22T02:16:31.351Z,0.00
2022-09-22T02:17:35.071Z,0.00
2022-09-22T02:18:31.323Z,0.00
2022-09-22T02:19:31.312Z,0.00
2022-09-22T02:20:31.327Z,0.00
2022-09-22T02:21:31.291Z,0.00
2022-09-22T02:22:31.282Z,0.00
2022-09-22T02:23:31.271Z,0.00
2022-09-22T02:24:31.255Z,0.00
2022-09-22T02:25:31.283Z,0.00
2022-09-22T02:26:31.219Z,0.00
2022-09-22T02:27:31.228Z,0.00
2022-09-22T02:28:31.204Z,0.00
2022-09-22T02:29:31.229Z,0.00
2022-09-22T02:30:31.168Z,0.00
2022-09-22T02:31:31.183Z,0.00
2022-09-22T02:32:31.165Z,0.00
2022-09-22T02:33:34.847Z,0.00
2022-09-22T02:34:32.158Z,0.00
2022-09-22T02:35:31.114Z,0.00
2022-09-22T02:36:31.132Z,0.00
2022-09-22T02:37:31.119Z,0.00
2022-09-22T02:38:31.105Z,0.00
2022-09-22T02:39:31.081Z,0.00
2022-09-22T02:40:31.164Z,0.00
2022-09-22T02:41:31.061Z,0.00
2022-09-22T02:42:31.049Z,0.00
2022-09-22T02:43:31.048Z,0.00
2022-09-22T02:44:31.022Z,0.00
2022-09-22T02:45:31.066Z,0.00
2022-09-22T02:46:31.022Z,0.00
2022-09-22T02:47:30.995Z,0.00
2022-09-22T02:48:30.992Z,0.00
2022-09-22T02:49:30.993Z,0.00
2022-09-22T02:50:31.011Z,0.00
2022-09-22T02:51:30.956Z,0.00
2022-09-22T02:52:30.948Z,0.00
2022-09-22T02:53:30.926Z,0.00
2022-09-22T02:54:30.961Z,0.00
2022-09-22T02:55:30.898Z,0.00
2022-09-22T02:56:30.906Z,0.00
2022-09-22T02:57:30.889Z,0.00
2022-09-22T02:58:30.879Z,0.00
2022-09-22T02:59:30.896Z,0.00
2022-09-22T03:00:30.849Z,0.00
2022-09-22T03:01:30.886Z,0.00
2022-09-22T03:02:30.807Z,0.00
2022-09-22T03:03:30.796Z,0.00
2022-09-22T03:04:30.868Z,0.00
2022-09-22T03:05:30.815Z,0.00
2022-09-22T03:06:30.819Z,0.00
2022-09-22T03:07:30.772Z,0.00
2022-09-22T03:08:30.783Z,0.00
2022-09-22T03:09:30.801Z,0.00
2022-09-22T03:10:30.746Z,0.00
2022-09-22T03:11:30.742Z,0.00
2022-09-22T03:12:30.722Z,0.00
2022-09-22T03:13:30.718Z,0.00
2022-09-22T03:14:30.726Z,0.00
2022-09-22T03:15:30.709Z,0.00
2022-09-22T03:16:30.661Z,0.00
2022-09-22T03:17:30.691Z,0.00
2022-09-22T03:18:30.640Z,0.00
2022-09-22T03:19:30.663Z,0.00
2022-09-22T03:20:30.619Z,0.00
2022-09-22T03:21:30.633Z,0.00
2022-09-22T03:22:30.597Z,0.00
2022-09-22T03:23:30.581Z,0.00
2022-09-22T03:24:30.601Z,0.00
2022-09-22T03:25:30.570Z,0.00
2022-09-22T03:26:30.563Z,0.00
2022-09-22T03:27:30.568Z,0.00
2022-09-22T03:28:30.619Z,0.00
2022-09-22T03:29:30.553Z,0.00
2022-09-22T03:30:30.582Z,0.00
2022-09-22T03:31:30.527Z,0.00
2022-09-22T03:32:30.479Z,0.00
2022-09-22T03:33:30.457Z,0.00
2022-09-22T03:34:30.497Z,0.00
2022-09-22T03:35:30.485Z,0.00
2022-09-22T03:36:30.448Z,0.00
2022-09-22T03:37:30.437Z,0.00
2022-09-22T03:38:30.398Z,0.00
2022-09-22T03:39:30.452Z,0.00
2022-09-22T03:40:30.402Z,0.00
2022-09-22T03:41:30.387Z,0.00
2022-09-22T03:42:30.384Z,0.00
2022-09-22T03:43:30.381Z,0.00
2022-09-22T03:44:30.382Z,0.00
2022-09-22T03:45:30.346Z,0.00
2022-09-22T03:46:30.432Z,0.00
2022-09-22T03:47:30.320Z,0.00
2022-09-22T03:48:30.297Z,0.00
2022-09-22T03:49:30.332Z,0.00
2022-09-22T03:50:30.309Z,0.00
2022-09-22T03:51:30.282Z,0.00
2022-09-22T03:52:30.298Z,0.00
2022-09-22T03:53:30.250Z,0.00
2022-09-22T03:54:30.262Z,0.00
2022-09-22T03:55:30.261Z,0.00
2022-09-22T03:56:30.233Z,0.00
2022-09-22T03:57:30.210Z,0.00
2022-09-22T03:58:30.202Z,0.00
2022-09-22T03:59:30.241Z,0.00
2022-09-22T04:00:30.150Z,0.00
2022-09-22T04:01:30.230Z,0.00
2022-09-22T04:02:30.192Z,0.00
2022-09-22T04:03:30.126Z,0.00
2022-09-22T04:04:30.164Z,0.00
2022-09-22T04:05:30.119Z,0.00
2022-09-22T04:06:30.099Z,0.00
2022-09-22T04:07:30.109Z,0.00
2022-09-22T04:08:30.084Z,0.00
2022-09-22T04:09:30.109Z,0.00
2022-09-22T04:10:30.040Z,0.00
2022-09-22T04:11:30.032Z,0.00
2022-09-22T04:12:30.044Z,0.00
2022-09-22T04:13:30.025Z,0.00
2022-09-22T04:14:30.026Z,0.00
2022-09-22T04:15:30.094Z,0.00
2022-09-22T04:16:30.019Z,0.00
2022-09-22T04:17:29.980Z,4.00
2022-09-22T04:18:29.959Z,0.00
2022-09-22T04:19:29.995Z,4.00
2022-09-22T04:20:29.933Z,4.00
2022-09-22T04:21:29.943Z,4.00
2022-09-22T04:22:29.918Z,4.00
2022-09-22T04:23:29.931Z,8.00
2022-09-22T04:24:29.901Z,8.00
2022-09-22T04:25:29.923Z,12.00
2022-09-22T04:26:29.875Z,16.00
2022-09-22T04:27:29.855Z,20.00
2022-09-22T04:28:29.852Z,24.00
2022-09-22T04:29:29.834Z,28.00
2022-09-22T04:30:29.875Z,32.00
2022-09-22T04:31:29.802Z,40.00
2022-09-22T04:32:29.803Z,44.00
2022-09-22T04:33:29.800Z,56.00
2022-09-22T04:34:29.773Z,64.00
2022-09-22T04:35:29.805Z,80.00
2022-09-22T04:36:29.765Z,92.00
2022-09-22T04:37:29.801Z,104.00
2022-09-22T04:38:29.718Z,120.00
2022-09-22T04:39:29.769Z,136.00
2022-09-22T04:40:29.801Z,160.00
2022-09-22T04:41:29.716Z,180.00
2022-09-22T04:42:29.706Z,208.00
2022-09-22T04:43:29.693Z,236.00
2022-09-22T04:44:34.596Z,268.00
2022-09-22T04:45:30.664Z,300.00
2022-09-22T04:46:29.718Z,336.00
2022-09-22T04:47:29.649Z,368.00
2022-09-22T04:48:29.620Z,404.00
2022-09-22T04:49:29.645Z,440.00
2022-09-22T04:50:29.667Z,480.00
2022-09-22T04:51:29.609Z,520.00
2022-09-22T04:52:29.578Z,560.00
2022-09-22T04:53:29.587Z,608.00
2022-09-22T04:54:29.544Z,648.00
2022-09-22T04:55:29.584Z,692.00
2022-09-22T04:56:29.550Z,732.00
2022-09-22T04:57:29.529Z,772.00
2022-09-22T04:58:29.530Z,820.00
2022-09-22T04:59:29.536Z,864.00
2022-09-22T05:00:29.473Z,920.00
2022-09-22T05:01:29.483Z,976.00
2022-09-22T05:02:29.478Z,1040.00
2022-09-22T05:03:29.504Z,1100.00
2022-09-22T05:04:29.493Z,1152.00
2022-09-22T05:05:29.446Z,1196.00
2022-09-22T05:06:29.423Z,1240.00
2022-09-22T05:07:29.426Z,1296.00
2022-09-22T05:08:29.393Z,1352.00
2022-09-22T05:09:29.434Z,1404.00
2022-09-22T05:10:29.368Z,1456.00
2022-09-22T05:11:29.367Z,1512.00
2022-09-22T05:12:29.372Z,1572.00
2022-09-22T05:13:29.350Z,1636.00
2022-09-22T05:14:29.375Z,1700.00
2022-09-22T05:15:29.325Z,1772.00
2022-09-22T05:16:29.357Z,1836.00
2022-09-22T05:17:29.308Z,1884.00
2022-09-22T05:18:29.272Z,1924.00
2022-09-22T05:19:29.290Z,1964.00
2022-09-22T05:20:29.387Z,2008.00
2022-09-22T05:21:29.275Z,2044.00
2022-09-22T05:22:29.271Z,2080.00
2022-09-22T05:23:29.253Z,2124.00
2022-09-22T05:24:29.215Z,2184.00
2022-09-22T05:25:29.258Z,2252.00
2022-09-22T05:26:29.201Z,2320.00
2022-09-22T05:27:29.192Z,2384.00
2022-09-22T05:28:29.170Z,2452.00
2022-09-22T05:29:29.152Z,2516.00
2022-09-22T05:30:29.195Z,2576.00
2022-09-22T05:31:29.196Z,2652.00
2022-09-22T05:32:29.148Z,2720.00
2022-09-22T05:33:29.139Z,2776.00
2022-09-22T05:34:29.150Z,2832.00
2022-09-22T05:35:33.017Z,2872.00
2022-09-22T05:36:30.078Z,2928.00
2022-09-22T05:37:29.088Z,2968.00
2022-09-22T05:38:29.063Z,3036.00
2022-09-22T05:39:29.063Z,3088.00
2022-09-22T05:40:29.150Z,3156.00
2022-09-22T05:41:29.039Z,3192.00
2022-09-22T05:42:29.041Z,3208.00
2022-09-22T05:43:29.017Z,3184.00
2022-09-22T05:44:29.003Z,3180.00
2022-09-22T05:45:29.066Z,3188.00
2022-09-22T05:46:28.971Z,3252.00
2022-09-22T05:47:28.963Z,3380.00
2022-09-22T05:48:31.386Z,3508.00
2022-09-22T05:49:28.936Z,3596.00
2022-09-22T05:50:28.956Z,3720.00
2022-09-22T05:51:28.920Z,3824.00
2022-09-22T05:52:28.888Z,3940.00
2022-09-22T05:53:28.911Z,4068.00
2022-09-22T05:54:28.893Z,4208.00
2022-09-22T05:55:28.901Z,4336.00
2022-09-22T05:56:28.845Z,4456.00
2022-09-22T05:57:28.832Z,4572.00
2022-09-22T05:58:28.820Z,4620.00
2022-09-22T05:59:28.808Z,4616.00
2022-09-22T06:00:28.906Z,4560.00
2022-09-22T06:01:28.897Z,4532.00
2022-09-22T06:02:28.838Z,4488.00
2022-09-22T06:03:28.787Z,4420.00
2022-09-22T06:04:28.786Z,4376.00
2022-09-22T06:05:28.817Z,4388.00
2022-09-22T06:06:28.767Z,4448.00
2022-09-22T06:07:28.745Z,4504.00
2022-09-22T06:08:28.747Z,4588.00
2022-09-22T06:09:28.714Z,4684.00
2022-09-22T06:10:28.754Z,4776.00
2022-09-22T06:11:28.694Z,4892.00
2022-09-22T06:12:28.687Z,5008.00
2022-09-22T06:13:28.661Z,5156.00
2022-09-22T06:14:28.677Z,5328.00
2022-09-22T06:15:28.712Z,5496.00
2022-09-22T06:16:28.733Z,5664.00
2022-09-22T06:17:28.617Z,5824.00
2022-09-22T06:18:28.633Z,5992.00
2022-09-22T06:19:28.589Z,6192.00
2022-09-22T06:20:28.603Z,6416.00
2022-09-22T06:21:28.571Z,6664.00
2022-09-22T06:22:28.569Z,6948.00
2022-09-22T06:23:28.542Z,7308.00
2022-09-22T06:24:28.551Z,7416.00
2022-09-22T06:25:28.567Z,7612.00
2022-09-22T06:26:28.511Z,7756.00
2022-09-22T06:27:28.515Z,7880.00
2022-09-22T06:28:28.486Z,7908.00
2022-09-22T06:29:28.449Z,8120.00
2022-09-22T06:30:28.489Z,7972.00
2022-09-22T06:31:28.542Z,7804.00
2022-09-22T06:32:28.472Z,7588.00
2022-09-22T06:33:28.430Z,7224.00
2022-09-22T06:34:28.438Z,6716.00
2022-09-22T06:35:28.500Z,6464.00
2022-09-22T06:36:28.406Z,6348.00
2022-09-22T06:37:28.398Z,6352.00
2022-09-22T06:38:28.378Z,6392.00
2022-09-22T06:39:28.357Z,6512.00
2022-09-22T06:40:28.426Z,6724.00
2022-09-22T06:41:28.358Z,6968.00
2022-09-22T06:42:28.351Z,7328.00
2022-09-22T06:43:28.311Z,7648.00
2022-09-22T06:44:28.340Z,8008.00
2022-09-22T06:45:28.408Z,8556.00
2022-09-22T06:46:28.320Z,9316.00
2022-09-22T06:47:28.266Z,10252.00
2022-09-22T06:48:28.271Z,11060.00
2022-09-22T06:49:28.295Z,11704.00
2022-09-22T06:50:30.394Z,12212.00
2022-09-22T06:51:28.231Z,12716.00
2022-09-22T06:52:28.230Z,13032.00
2022-09-22T06:53:28.209Z,13424.00
2022-09-22T06:54:28.235Z,13848.00
2022-09-22T06:55:28.251Z,14212.00
2022-09-22T06:56:28.189Z,14564.00
2022-09-22T06:57:28.157Z,15172.00
2022-09-22T06:58:28.158Z,15808.00
2022-09-22T06:59:28.115Z,16128.00
2022-09-22T07:00:28.193Z,16140.00
2022-09-22T07:01:28.168Z,15840.00
2022-09-22T07:02:28.129Z,15612.00
2022-09-22T07:03:28.126Z,15532.00
2022-09-22T07:04:28.095Z,15392.00
2022-09-22T07:05:28.113Z,14972.00
2022-09-22T07:06:28.106Z,14648.00
2022-09-22T07:07:28.046Z,14608.00
2022-09-22T07:08:28.064Z,14852.00
2022-09-22T07:09:28.042Z,15336.00
2022-09-22T07:10:28.074Z,15760.00
2022-09-22T07:11:27.994Z,15908.00
2022-09-22T07:12:28.019Z,15844.00
2022-09-22T07:13:27.990Z,15604.00
2022-09-22T07:14:27.968Z,15296.00
2022-09-22T07:15:27.990Z,14916.00
2022-09-22T07:16:28.171Z,14608.00
2022-09-22T07:17:27.945Z,14268.00
2022-09-22T07:18:27.951Z,13852.00
2022-09-22T07:19:27.908Z,13476.00
2022-09-22T07:20:27.948Z,13212.00
2022-09-22T07:21:27.896Z,13044.00
2022-09-22T07:22:27.888Z,12948.00
2022-09-22T07:23:27.863Z,12792.00
2022-09-22T07:24:27.870Z,12504.00
2022-09-22T07:25:27.875Z,12172.00
2022-09-22T07:26:27.845Z,11860.00
2022-09-22T07:27:27.822Z,11764.00
2022-09-22T07:28:27.820Z,11760.00
2022-09-22T07:29:27.798Z,11820.00
2022-09-22T07:30:27.811Z,11940.00
2022-09-22T07:31:28.990Z,12136.00
2022-09-22T07:32:27.767Z,12328.00
2022-09-22T07:33:27.764Z,12432.00
2022-09-22T07:34:27.757Z,12444.00
2022-09-22T07:35:27.779Z,12484.00
2022-09-22T07:36:27.728Z,12540.00
2022-09-22T07:37:27.706Z,12628.00
2022-09-22T07:38:27.730Z,12588.00
2022-09-22T07:39:27.718Z,12564.00
2022-09-22T07:40:27.785Z,12520.00
2022-09-22T07:41:27.671Z,12628.00
2022-09-22T07:42:27.660Z,13068.00
2022-09-22T07:43:27.669Z,13792.00
2022-09-22T07:44:27.626Z,14812.00
2022-09-22T07:45:27.652Z,15340.00
2022-09-22T07:46:27.649Z,15848.00
2022-09-22T07:47:27.621Z,16448.00
2022-09-22T07:48:27.594Z,16804.00
2022-09-22T07:49:27.597Z,16856.00
2022-09-22T07:50:27.609Z,16868.00
2022-09-22T07:51:27.543Z,16884.00
2022-09-22T07:52:27.558Z,17344.00
2022-09-22T07:53:27.534Z,16928.00
2022-09-22T07:54:27.542Z,16012.00
2022-09-22T07:55:27.563Z,15708.00
2022-09-22T07:56:27.511Z,16488.00
2022-09-22T07:57:27.486Z,24896.00
2022-09-22T07:58:27.468Z,22336.00
2022-09-22T07:59:27.579Z,25600.00
2022-09-22T08:00:27.540Z,38240.00
2022-09-22T08:01:27.415Z,40544.00
2022-09-22T08:02:27.468Z,44096.00
2022-09-22T08:03:27.412Z,45408.00
2022-09-22T08:04:27.408Z,45376.00
2022-09-22T08:05:27.461Z,46016.00
2022-09-22T08:06:27.417Z,44032.00
2022-09-22T08:07:27.368Z,42112.00
2022-09-22T08:08:27.374Z,42784.00
2022-09-22T08:09:27.346Z,41920.00
2022-09-22T08:10:27.388Z,41600.00
2022-09-22T08:11:27.328Z,42752.00
2022-09-22T08:12:27.305Z,43904.00
2022-09-22T08:13:27.307Z,39904.00
2022-09-22T08:14:27.296Z,43072.00
2022-09-22T08:15:27.633Z,43360.00
2022-09-22T08:16:27.317Z,44288.00
2022-09-22T08:17:27.279Z,38912.00
2022-09-22T08:18:27.268Z,46144.00
2022-09-22T08:19:27.236Z,47072.00
2022-09-22T08:20:27.262Z,45792.00
2022-09-22T08:21:27.218Z,46656.00
2022-09-22T08:22:27.200Z,45440.00
2022-09-22T08:23:27.178Z,44576.00
2022-09-22T08:24:27.234Z,46720.00
2022-09-22T08:25:27.217Z,50048.00
2022-09-22T08:26:27.178Z,48576.00
2022-09-22T08:27:27.145Z,53440.00
2022-09-22T08:28:27.152Z,54208.00
2022-09-22T08:29:27.146Z,60416.00
2022-09-22T08:30:27.153Z,48128.00
2022-09-22T08:31:27.172Z,57568.00
2022-09-22T08:32:27.070Z,12248.00
2022-09-22T08:33:27.071Z,13992.00
2022-09-22T08:34:27.078Z,16732.00
2022-09-22T08:35:27.093Z,12788.00
2022-09-22T08:36:27.058Z,11960.00
2022-09-22T08:37:27.027Z,12580.00
2022-09-22T08:38:27.044Z,14572.00
2022-09-22T08:39:27.007Z,37376.00
2022-09-22T08:40:27.105Z,17284.00
2022-09-22T08:41:26.989Z,16300.00
2022-09-22T08:42:26.971Z,15444.00
2022-09-22T08:43:26.976Z,15296.00
2022-09-22T08:44:26.964Z,15680.00
2022-09-22T08:45:27.265Z,15092.00
2022-09-22T08:46:26.984Z,13844.00
2022-09-22T08:47:26.942Z,13004.00
2022-09-22T08:48:26.912Z,12728.00
2022-09-22T08:49:26.913Z,15632.00
2022-09-22T08:50:26.935Z,17468.00
2022-09-22T08:51:26.873Z,44160.00
2022-09-22T08:52:26.866Z,18380.00
2022-09-22T08:53:26.852Z,22720.00
2022-09-22T08:54:26.852Z,29472.00
2022-09-22T08:55:26.832Z,22624.00
2022-09-22T08:56:26.853Z,72320.00
2022-09-22T08:57:26.805Z,76384.00
2022-09-22T08:58:26.787Z,71968.00
2022-09-22T08:59:26.792Z,68608.00
2022-09-22T09:00:26.769Z,70112.00
2022-09-22T09:01:26.832Z,75360.00
2022-09-22T09:02:26.761Z,73312.00
2022-09-22T09:03:26.718Z,78080.00
2022-09-22T09:04:26.722Z,86432.00
2022-09-22T09:05:26.709Z,89472.00
2022-09-22T09:06:26.728Z,26176.00
2022-09-22T09:07:26.700Z,91200.00
2022-09-22T09:08:26.685Z,84800.00
2022-09-22T09:09:26.805Z,91520.00
2022-09-22T09:10:26.675Z,16176.00
2022-09-22T09:11:26.685Z,46752.00
2022-09-22T09:12:26.657Z,15968.00
2022-09-22T09:13:26.625Z,96096.00
2022-09-22T09:14:26.612Z,18944.00
2022-09-22T09:15:26.603Z,102848.00
2022-09-22T09:16:26.644Z,101440.00
2022-09-22T09:17:26.589Z,23104.00
2022-09-22T09:18:26.576Z,103712.00
2022-09-22T09:19:26.579Z,103360.00
2022-09-22T09:20:26.563Z,94560.00
2022-09-22T09:21:26.573Z,50048.00
2022-09-22T09:22:26.535Z,108192.00
2022-09-22T09:25:22.126Z,101600.00
2022-09-22T09:25:30.001Z,117504.00
2022-09-22T09:26:26.525Z,30656.00
2022-09-22T09:27:26.489Z,30112.00
2022-09-22T09:28:27.976Z,31104.00
2022-09-22T09:29:26.450Z,120992.00
2022-09-22T09:30:26.426Z,56928.00
2022-09-22T09:31:26.507Z,120704.00
2022-09-22T09:32:26.411Z,120256.00
2022-09-22T09:33:26.418Z,126720.00
2022-09-22T09:34:26.387Z,139392.00
2022-09-22T09:35:26.416Z,149024.00
2022-09-22T09:36:26.373Z,129760.00
2022-09-22T09:37:26.363Z,129728.00
2022-09-22T09:38:26.365Z,24416.00
2022-09-22T09:39:26.354Z,16932.00
2022-09-22T09:40:26.392Z,19200.00
2022-09-22T09:41:26.303Z,16316.00
2022-09-22T09:42:26.333Z,17760.00
2022-09-22T09:43:26.293Z,21472.00
2022-09-22T09:44:26.297Z,28704.00
2022-09-22T09:45:26.309Z,71616.00
2022-09-22T09:46:26.330Z,65024.00
2022-09-22T09:47:26.246Z,60160.00
2022-09-22T09:48:26.230Z,56832.00
2022-09-22T09:49:26.226Z,56096.00
2022-09-22T09:50:26.265Z,56800.00
2022-09-22T09:51:26.202Z,53568.00
2022-09-22T09:52:26.198Z,58784.00
2022-09-22T09:53:26.191Z,59040.00
2022-09-22T09:54:26.228Z,59200.00
2022-09-22T09:55:27.728Z,54944.00
2022-09-22T09:56:26.157Z,44992.00
2022-09-22T09:57:29.128Z,51840.00
2022-09-22T09:58:26.140Z,23712.00
2022-09-22T09:59:26.103Z,22880.00
2022-09-22T10:00:26.158Z,22336.00
2022-09-22T10:01:26.149Z,22208.00
2022-09-22T10:02:26.103Z,21504.00
2022-09-22T10:03:26.091Z,20928.00
2022-09-22T10:04:26.056Z,20352.00
2022-09-22T10:05:26.071Z,21216.00
2022-09-22T10:06:26.024Z,20736.00
2022-09-22T10:07:26.091Z,19296.00
2022-09-22T10:08:26.020Z,17920.00
2022-09-22T10:09:26.027Z,19040.00
2022-09-22T10:10:26.036Z,20128.00
2022-09-22T10:11:26.009Z,49408.00
2022-09-22T10:12:25.992Z,28384.00
2022-09-22T10:13:25.971Z,52768.00
2022-09-22T10:14:25.948Z,26816.00
2022-09-22T10:15:25.994Z,23616.00
2022-09-22T10:16:25.943Z,24192.00
2022-09-22T10:17:25.917Z,25664.00
2022-09-22T10:18:25.904Z,26848.00
2022-09-22T10:19:25.904Z,27168.00
2022-09-22T10:20:25.915Z,30112.00
2022-09-22T10:21:25.877Z,31584.00
2022-09-22T10:22:25.876Z,57376.00
2022-09-22T10:23:25.850Z,48448.00
2022-09-22T10:24:25.841Z,33344.00
2022-09-22T10:25:25.884Z,43392.00
2022-09-22T10:26:25.804Z,53536.00
2022-09-22T10:27:25.849Z,28096.00
2022-09-22T10:28:25.792Z,25632.00
2022-09-22T10:29:25.778Z,24608.00
2022-09-22T10:30:25.874Z,24448.00
2022-09-22T10:31:25.955Z,23008.00
2022-09-22T10:32:25.754Z,22240.00
2022-09-22T10:33:25.741Z,23392.00
2022-09-22T10:34:25.703Z,20672.00
2022-09-22T10:35:25.746Z,18560.00
2022-09-22T10:36:25.690Z,17216.00
2022-09-22T10:37:25.692Z,16324.00
2022-09-22T10:38:25.691Z,15976.00
2022-09-22T10:39:25.678Z,15436.00
2022-09-22T10:40:25.853Z,15208.00
2022-09-22T10:41:25.693Z,15060.00
2022-09-22T10:42:25.619Z,14628.00
2022-09-22T10:43:25.644Z,14168.00
2022-09-22T10:44:38.617Z,13968.00
2022-09-22T10:45:26.635Z,14000.00
2022-09-22T10:46:25.649Z,14172.00
2022-09-22T10:47:27.369Z,14300.00
2022-09-22T10:48:25.574Z,14220.00
2022-09-22T10:49:25.558Z,13924.00
2022-09-22T10:50:25.624Z,13628.00
2022-09-22T10:51:25.534Z,13448.00
2022-09-22T10:52:25.522Z,13540.00
2022-09-22T10:53:25.511Z,13572.00
2022-09-22T10:54:25.518Z,13608.00
2022-09-22T10:55:25.548Z,13688.00
2022-09-22T10:56:25.472Z,13908.00
2022-09-22T10:57:25.471Z,14172.00
2022-09-22T10:58:25.465Z,14292.00
2022-09-22T10:59:25.447Z,14420.00
2022-09-22T11:00:25.476Z,14528.00
2022-09-22T11:01:25.479Z,14680.00
2022-09-22T11:02:25.418Z,14872.00
2022-09-22T11:03:25.430Z,15148.00
2022-09-22T11:04:25.411Z,15548.00
2022-09-22T11:05:25.405Z,15856.00
2022-09-22T11:06:25.351Z,16244.00
2022-09-22T11:07:25.332Z,16784.00
2022-09-22T11:08:25.366Z,17156.00
2022-09-22T11:09:25.391Z,17336.00
2022-09-22T11:10:25.322Z,17272.00
2022-09-22T11:11:25.314Z,17032.00
2022-09-22T11:12:25.292Z,16852.00
2022-09-22T11:13:25.297Z,16652.00
2022-09-22T11:14:25.331Z,16580.00
2022-09-22T11:15:25.323Z,16660.00
2022-09-22T11:16:25.251Z,16796.00
2022-09-22T11:17:25.250Z,16744.00
2022-09-22T11:18:25.207Z,16908.00
2022-09-22T11:19:25.287Z,17012.00
2022-09-22T11:20:25.202Z,17284.00
2022-09-22T11:21:25.202Z,17620.00
2022-09-22T11:22:25.194Z,18048.00
2022-09-22T11:23:25.177Z,18208.00
2022-09-22T11:24:25.208Z,18304.00
2022-09-22T11:25:25.150Z,18144.00
2022-09-22T11:26:25.133Z,18144.00
2022-09-22T11:27:25.145Z,18144.00
2022-09-22T11:28:25.115Z,18144.00
2022-09-22T11:29:25.120Z,18080.00
2022-09-22T11:30:25.122Z,18208.00
2022-09-22T11:31:25.104Z,18592.00
2022-09-22T11:32:25.071Z,18976.00
2022-09-22T11:33:25.090Z,19200.00
2022-09-22T11:34:25.081Z,19136.00
2022-09-22T11:35:25.031Z,18880.00
2022-09-22T11:36:25.006Z,18688.00
2022-09-22T11:37:24.989Z,18464.00
2022-09-22T11:38:24.984Z,18336.00
2022-09-22T11:39:25.048Z,18208.00
2022-09-22T11:40:25.023Z,18272.00
2022-09-22T11:41:25.001Z,18624.00
2022-09-22T11:42:24.949Z,19072.00
2022-09-22T11:43:24.933Z,19616.00
2022-09-22T11:44:24.996Z,20224.00
2022-09-22T11:45:24.940Z,20672.00
2022-09-22T11:46:24.961Z,21120.00
2022-09-22T11:47:24.924Z,21664.00
2022-09-22T11:48:24.883Z,22304.00
2022-09-22T11:49:24.901Z,23968.00
2022-09-22T11:50:24.861Z,26272.00
2022-09-22T11:51:24.868Z,29088.00
2022-09-22T11:52:24.857Z,49856.00
2022-09-22T11:53:24.835Z,59232.00
2022-09-22T11:54:24.845Z,58112.00
2022-09-22T11:55:24.826Z,46592.00
2022-09-22T11:56:24.778Z,57024.00
2022-09-22T11:57:24.794Z,33888.00
2022-09-22T11:58:24.780Z,26176.00
2022-09-22T11:59:24.806Z,26336.00
2022-09-22T12:00:24.736Z,23328.00
2022-09-22T12:01:24.758Z,22912.00
2022-09-22T12:02:24.866Z,22592.00
2022-09-22T12:03:24.780Z,22080.00
2022-09-22T12:04:24.736Z,22240.00
2022-09-22T12:05:24.742Z,26112.00
2022-09-22T12:06:24.767Z,23168.00
2022-09-22T12:07:24.642Z,23840.00
2022-09-22T12:08:24.654Z,26208.00
2022-09-22T12:09:24.661Z,22560.00
2022-09-22T12:10:24.651Z,21376.00
2022-09-22T12:11:24.645Z,20960.00
2022-09-22T12:12:24.615Z,21280.00
2022-09-22T12:13:24.626Z,22208.00
2022-09-22T12:14:24.644Z,24096.00
2022-09-22T12:15:24.588Z,28128.00
2022-09-22T12:16:24.565Z,24192.00
2022-09-22T12:17:24.575Z,23808.00
2022-09-22T12:18:24.551Z,24000.00
2022-09-22T12:19:24.581Z,27072.00
2022-09-22T12:20:24.524Z,26016.00
2022-09-22T12:21:24.518Z,25472.00